• Join FlightAware (Why Join?)
  • Login
  • US Flag 
12:34PM EDT


 

Airport Tracker/Info


-or-


 

Live Flight TrackerFlight Track Log ✈ N46KJ ✈ 05-May-2013 ✈ KHPN - KSKY

Flight Track Log - Related Links

Times and Time Zones

All times are in EDT time to prevent confusion due to time zone crossing. See the N46KJ flight status page for this flight to view local times or setup timezone preferences in your user account.

Time Position Orientation Groundspeed Altitude Reporting Facility
EDT Latitude Longitude Course Direction KTS MPH feet Rate Location/Type
01:45PM 41.2558 -75.6172 275° West 197 227 14,400  Level New York Center
01:46PM 41.2611 -75.6947 275° West 197 227 14,400  Level New York Center
01:47PM 41.2625 -75.7611 272° West 197 227 14,400  Level New York Center
01:48PM 41.2653 -75.8386 273° West 197 227 14,400  Level New York Center
01:49PM 41.2708 -75.9081 276° West 197 227 14,400  Level New York Center
01:50PM 41.2742 -75.9719 274° West 197 227 14,400  Level New York Center
01:51PM 41.2775 -76.0411 274° West 197 227 14,400  Level New York Center
01:52PM 41.2822 -76.1189 275° West 199 229 14,400  Level New York Center
01:53PM 41.2853 -76.1908 273° West 199 229 14,400  Level New York Center
01:54PM 41.2883 -76.2575 274° West 199 229 14,400  Level New York Center
01:55PM 41.2933 -76.3297 275° West 199 229 14,400  Level New York Center
01:56PM 41.2961 -76.4072 273° West 199 229 14,400  Level New York Center
01:57PM 41.2989 -76.4792 273° West 199 229 14,400  Level New York Center
01:58PM 41.3036 -76.5514 275° West 199 229 14,400  Level New York Center
01:59PM 41.3067 -76.6153 274° West 199 229 14,400  Level New York Center
02:00PM 41.3089 -76.6983 272° West 207 238 14,400  Level New York Center
02:01PM 41.3133 -76.7733 275° West 207 238 14,400  Level New York Center
02:02PM 41.3181 -76.8456 275° West 207 238 14,400  Level New York Center
02:03PM 41.3208 -76.9147 273° West 197 227 14,400  Level New York Center
02:04PM 41.3233 -76.9869 273° West 197 227 14,400  Level New York Center
02:05PM 41.3261 -77.0508 273° West 197 227 14,400  Level New York Center
02:07PM 41.3336 -77.2342 273° West 200 230 14,400  Level Cleveland Center
02:08PM 41.3378 -77.3086 274° West 200 230 14,400  Level Cleveland Center
02:09PM 41.3400 -77.3858 272° West 200 230 14,400  Level Cleveland Center
02:10PM 41.3442 -77.4575 274° West 200 230 14,400  Level Cleveland Center
02:11PM 41.3481 -77.5294 274° West 200 230 14,500  Climbing Cleveland Center
02:12PM 41.3500 -77.6039 272° West 200 230 14,400  Descending Cleveland Center
02:13PM 41.3519 -77.6814 272° West 200 230 14,500  Climbing Cleveland Center
02:14PM 41.3539 -77.7558 272° West 200 230 14,400  Descending Cleveland Center
02:15PM 41.3578 -77.8306 274° West 200 230 14,500  Climbing Cleveland Center
02:16PM 41.3597 -77.9053 272° West 200 230 14,400  Descending Cleveland Center
02:17PM 41.3633 -77.9797 274° West 200 230 14,500  Climbing Cleveland Center
02:18PM 41.3650 -78.0544 272° West 200 230 14,500  Level Cleveland Center
02:19PM 41.3686 -78.1261 274° West 200 230 14,500  Level Cleveland Center
02:20PM 41.3703 -78.2008 272° West 200 230 14,500  Level Cleveland Center
02:21PM 41.3719 -78.2839 272° West 200 230 14,500  Level Cleveland Center
02:22PM 41.3756 -78.3583 274° West 200 230 14,500  Level Cleveland Center
02:23PM 41.3792 -78.4331 274° West 200 230 14,500 -60 Level Cleveland Center
02:24PM 41.3806 -78.5075 271° West 200 230 14,400 -60 Descending Cleveland Center
02:25PM 41.3817 -78.5822 271° West 200 230 14,400  Level Cleveland Center
02:26PM 41.3853 -78.6569 274° West 200 230 14,500  Climbing Cleveland Center
02:27PM 41.3864 -78.7317 271° West 200 230 14,500 -60 Level Cleveland Center
02:28PM 41.3897 -78.8061 273° West 200 230 14,400  Descending Cleveland Center
02:29PM 41.3908 -78.8808 271° West 200 230 14,500  Climbing Cleveland Center
02:30PM 41.3939 -78.9583 273° West 200 230 14,400  Descending Cleveland Center
02:31PM 41.3950 -79.0303 271° West 200 230 14,500  Climbing Cleveland Center
02:32PM 41.3981 -79.1050 273° West 205 236 14,400  Descending Cleveland Center
02:33PM 41.3989 -79.1714 271° West 205 236 14,500  Climbing Cleveland Center
02:34PM 41.4019 -79.2461 273° West 200 230 14,400 -60 Descending Cleveland Center
02:35PM 41.4028 -79.3181 271° West 200 230 14,400  Level Cleveland Center
02:36PM 41.4056 -79.3928 273° West 195 224 14,500  Climbing Cleveland Center
02:37PM 41.4064 -79.4703 271° West 195 224 14,400  Descending Cleveland Center
02:38PM 41.4092 -79.5450 273° West 195 224 14,500  Climbing Cleveland Center
02:39PM 41.4097 -79.6197 271° West 195 224 14,400  Descending Cleveland Center
02:40PM 41.4125 -79.6972 273° West 201 231 14,500  Climbing Cleveland Center
02:41PM 41.4131 -79.7719 271° West 201 231 14,500  Level Cleveland Center
02:42PM 41.4156 -79.8467 273° West 201 231 14,500  Level Cleveland Center
02:43PM 41.4142 -79.9242 269° West 201 231 14,500  Level Cleveland Center
02:44PM 41.4167 -80.0044 272° West 201 231 14,500  Level Cleveland Center
02:45PM 41.4189 -80.0764 272° West 201 231 14,500  Level Cleveland Center
02:46PM 41.4192 -80.1511 270° West 201 231 14,500  Level Cleveland Center
02:47PM 41.4236 -80.2314 274° West 206 237 14,500  Level Cleveland Center
02:48PM 41.4219 -80.3064 268° West 206 237 14,500  Level Cleveland Center
02:49PM 41.4219 -80.3783 270° West 211 243 14,500  Level Cleveland Center
02:50PM 41.4242 -80.4586 272° West 211 243 14,500  Level Cleveland Center
02:51PM 41.4264 -80.5361 272° West 211 243 14,500 -240 Level Cleveland Center
02:52PM 41.4264 -80.6136 270° West 216 249 14,100 -480 Descending Cleveland Center
02:53PM 41.4283 -80.6994 272° West 221 254 13,600 -540 Descending Cleveland Center
02:54PM 41.4283 -80.7797 270° West 221 254 13,100 -600 Descending Cleveland Center
02:55PM 41.4281 -80.8628 270° West 226 260 12,500 -480 Descending Cleveland Center
02:56PM 41.4319 -80.9431 274° West 226 260 12,200 -420 Descending Cleveland Center
02:57PM 41.4317 -81.0236 270° West 221 254 11,700 -540 Descending Cleveland Center
02:58PM 41.4294 -81.0678 266° West 215 247 11,400 -540 Descending Cleveland Center
02:58PM 41.4314 -81.1039 274° West 221 254 11,200 -600 Descending Cleveland Center
02:59PM 41.4311 -81.1425 269° West 218 251 10,900 -540 Descending Cleveland Center
02:59PM 41.4311 -81.1842 270° West 216 249 10,700 60 Descending Cleveland Center
03:00PM 41.4306 -81.2589 269° West 216 249 11,000 180 Climbing Cleveland Center
03:01PM 41.4325 -81.2950 274° West 194 223 11,000 -120 Level Cleveland Center
03:01PM 41.4322 -81.3225 269° West 205 236 10,900 -120 Descending Cleveland Center
03:02PM 41.4319 -81.3725 270° West 193 222 10,900 60 Level Cleveland Center
03:02PM 41.4317 -81.3947 269° West 196 226 11,000  Climbing Cleveland Center
03:03PM 41.4314 -81.4389 270° West 194 223 10,900 -120 Descending Cleveland Center
03:03PM 41.4333 -81.4667 275° West 196 226 10,900  Level Cleveland Center
03:04PM 41.4331 -81.5108 270° West 193 222 10,900  Level Cleveland Center
03:04PM 41.4328 -81.5358 269° West 196 226 10,900 -420 Level Cleveland Center
03:05PM 41.4322 -81.5883 269° West 198 228 10,500 -600 Descending Cleveland Center
03:05PM 41.4342 -81.6106 277° West 202 232 10,300 -600 Descending Cleveland Center
03:06PM 41.4358 -81.6689 272° West 221 254 9,900 -600 Descending Cleveland Center
03:06PM 41.4356 -81.6911 269° West 214 246 9,700 -720 Descending Cleveland Center
03:07PM 41.4350 -81.7492 269° West 227 261 9,200 -720 Descending Cleveland Center
03:07PM 41.4367 -81.7742 275° West 220 253 9,000 -600 Descending Cleveland Center
03:08PM 41.4361 -81.8294 269° West 225 259 8,600 -720 Descending Cleveland Center
03:10PM 41.4322 -81.9983 268° West 213 245 7,200 -720 Descending Cleveland Center
03:11PM 41.4353 -82.0761 273° West 211 243 6,500 -660 Descending Cleveland Center
03:12PM 41.4344 -82.1508 269° West 204 235 5,900 -480 Descending Cleveland Center
03:13PM 41.4314 -82.2200 267° West 179 206 5,600 -540 Descending Cleveland Center
03:14PM 41.4344 -82.2919 273° West 192 221 4,900 -720 Descending Cleveland Center
03:16PM 41.4339 -82.4578 270° West  Level FlightAware Approximate
03:23PM 41.4333 -82.6500 270° West  Level FlightAware Approximate
03:24PM 41.4334 -82.6523 270° West  Level Estimated
03:25PM 41.4333 -82.6500 270° West  Level FlightAware Approximate
03:26PM 41.4334 -82.6523 270° West  Level Estimated